createdAt,value
2023-02-27T00:02:25.569Z,14.33
2023-02-27T00:05:00.986Z,9.27
2023-02-27T00:07:30.230Z,9.23
2023-02-27T00:09:58.561Z,13.23
2023-02-27T00:12:26.607Z,8.87
2023-02-27T00:14:54.671Z,11.50
2023-02-27T00:17:26.015Z,13.10
2023-02-27T00:19:54.161Z,9.80
2023-02-27T00:22:22.317Z,10.73
2023-02-27T00:24:50.346Z,13.23
2023-02-27T00:27:18.361Z,8.67
2023-02-27T00:29:46.789Z,11.40
2023-02-27T00:32:15.010Z,14.80
2023-02-27T00:34:44.454Z,14.10
2023-02-27T00:37:12.528Z,11.27
2023-02-27T00:39:40.745Z,9.97
2023-02-27T00:42:08.834Z,11.23
2023-02-27T00:44:36.887Z,12.83
2023-02-27T00:47:05.432Z,15.70
2023-02-27T00:49:33.877Z,13.47
2023-02-27T00:52:03.650Z,11.40
2023-02-27T00:54:31.794Z,9.10
2023-02-27T00:56:59.820Z,12.50
2023-02-27T00:59:28.083Z,10.93
2023-02-27T01:01:56.395Z,9.27
2023-02-27T01:04:24.407Z,13.90
2023-02-27T01:06:54.620Z,9.40
2023-02-27T01:09:24.956Z,11.07
2023-02-27T01:11:53.408Z,11.43
2023-02-27T01:14:22.784Z,11.17
2023-02-27T01:16:51.006Z,8.97
2023-02-27T01:19:19.081Z,9.27
2023-02-27T01:21:47.302Z,7.03
2023-02-27T01:24:16.532Z,7.43
2023-02-27T01:26:45.981Z,8.73
2023-02-27T01:29:14.093Z,11.00
2023-02-27T01:31:42.306Z,9.47
2023-02-27T01:34:10.347Z,9.63
2023-02-27T01:36:38.364Z,11.07
2023-02-27T01:39:06.476Z,7.37
2023-02-27T01:41:35.016Z,8.07
2023-02-27T01:44:07.352Z,11.27
2023-02-27T01:46:38.259Z,9.40
2023-02-27T01:49:08.554Z,10.33
2023-02-27T01:51:38.760Z,6.13
2023-02-27T01:54:08.704Z,6.73
2023-02-27T01:56:37.676Z,7.07
2023-02-27T01:59:08.924Z,7.10
2023-02-27T02:01:37.558Z,7.40
2023-02-27T02:04:11.373Z,6.77
2023-02-27T02:06:42.089Z,6.20
2023-02-27T02:09:11.144Z,7.17
2023-02-27T02:11:39.408Z,10.30
2023-02-27T02:14:10.998Z,6.83
2023-02-27T02:17:11.485Z,10.43
2023-02-27T02:20:22.820Z,9.23
2023-02-27T02:23:18.986Z,7.00
2023-02-27T02:26:31.047Z,6.60
2023-02-27T02:29:48.481Z,10.10
2023-02-27T02:32:35.649Z,5.50
2023-02-27T02:35:55.065Z,5.47
2023-02-27T02:39:02.508Z,6.37
2023-02-27T02:41:39.904Z,6.93
2023-02-27T02:44:20.184Z,6.87
2023-02-27T02:46:56.017Z,6.53
2023-02-27T02:49:29.160Z,5.80
2023-02-27T02:52:02.528Z,5.17
2023-02-27T02:54:39.340Z,6.97
2023-02-27T02:57:11.656Z,6.27
2023-02-27T02:59:42.933Z,7.13
2023-02-27T03:02:13.518Z,6.03
2023-02-27T03:04:44.335Z,5.83
2023-02-27T03:07:15.061Z,6.57
2023-02-27T03:09:47.675Z,6.73
2023-02-27T03:12:20.318Z,6.00
2023-02-27T03:14:53.136Z,4.97
2023-02-27T03:17:26.050Z,7.57
2023-02-27T03:19:56.944Z,7.57
2023-02-27T03:22:27.355Z,5.60
2023-02-27T03:24:59.366Z,10.03
2023-02-27T03:27:32.588Z,7.53
2023-02-27T03:30:05.176Z,5.00
2023-02-27T03:32:43.135Z,5.77
2023-02-27T03:35:12.547Z,6.70
2023-02-27T03:37:49.773Z,5.73
2023-02-27T03:40:25.748Z,6.37
2023-02-27T03:43:00.929Z,8.33
2023-02-27T03:45:55.140Z,5.70
2023-02-27T03:48:23.434Z,5.90
2023-02-27T03:50:51.645Z,5.97
2023-02-27T03:53:23.004Z,8.40
2023-02-27T03:55:52.244Z,6.87
2023-02-27T03:58:21.877Z,7.23
2023-02-27T04:00:50.124Z,7.73
2023-02-27T04:03:18.720Z,6.17
2023-02-27T04:05:47.508Z,6.33
2023-02-27T04:08:25.128Z,8.17
2023-02-27T04:11:03.068Z,7.60
2023-02-27T04:13:43.439Z,6.20
2023-02-27T04:16:45.982Z,6.70
2023-02-27T04:19:20.234Z,7.90
2023-02-27T04:21:56.196Z,10.17
2023-02-27T04:24:33.590Z,6.73
2023-02-27T04:27:08.622Z,6.30
2023-02-27T04:29:49.229Z,6.73
2023-02-27T04:32:21.808Z,11.13
2023-02-27T04:34:52.116Z,6.57
2023-02-27T04:37:24.991Z,9.37
2023-02-27T04:39:55.628Z,6.03
2023-02-27T04:42:27.039Z,6.63
2023-02-27T04:45:00.628Z,7.40
2023-02-27T04:47:32.071Z,8.23
2023-02-27T04:50:04.808Z,7.40
2023-02-27T04:52:37.138Z,6.97
2023-02-27T04:55:08.426Z,7.03
2023-02-27T04:57:41.156Z,8.33
2023-02-27T05:00:13.867Z,7.57
2023-02-27T05:02:44.458Z,7.77
2023-02-27T05:05:18.051Z,10.50
2023-02-27T05:07:49.154Z,7.10
2023-02-27T05:10:23.700Z,9.47
2023-02-27T05:12:55.560Z,7.60
2023-02-27T05:15:29.715Z,6.30
2023-02-27T05:18:01.623Z,6.90
2023-02-27T05:20:36.218Z,6.37
2023-02-27T05:23:11.126Z,6.27
2023-02-27T05:25:44.607Z,7.80
2023-02-27T05:28:17.540Z,7.37
2023-02-27T05:30:51.375Z,7.37
2023-02-27T05:33:24.489Z,6.00
2023-02-27T05:35:55.705Z,7.13
2023-02-27T05:38:28.944Z,7.30
2023-02-27T05:41:01.239Z,7.00
2023-02-27T05:43:30.725Z,8.43
2023-02-27T05:46:02.693Z,7.23
2023-02-27T05:48:33.952Z,8.30
2023-02-27T05:51:03.339Z,7.80
2023-02-27T05:53:34.906Z,10.07
2023-02-27T05:56:04.457Z,8.63
2023-02-27T05:58:36.894Z,6.30
2023-02-27T06:01:08.063Z,8.27
2023-02-27T06:03:38.104Z,7.77
2023-02-27T06:06:08.583Z,8.00
2023-02-27T06:08:36.921Z,9.87
2023-02-27T06:11:05.118Z,9.30
2023-02-27T06:13:33.350Z,10.90
2023-02-27T06:16:01.571Z,8.70
2023-02-27T06:18:31.318Z,8.40
2023-02-27T06:20:59.466Z,7.80
2023-02-27T06:23:27.794Z,6.37
2023-02-27T06:25:56.416Z,7.43
2023-02-27T06:28:24.503Z,9.30
2023-02-27T06:30:55.019Z,8.80
2023-02-27T06:33:23.165Z,6.73
2023-02-27T06:35:53.232Z,13.47
2023-02-27T06:38:21.903Z,10.43
2023-02-27T06:40:50.002Z,8.53
2023-02-27T06:43:18.138Z,12.53
2023-02-27T06:45:46.507Z,7.57
2023-02-27T06:48:14.890Z,7.93
2023-02-27T06:50:43.017Z,7.90
2023-02-27T06:53:12.839Z,10.50
2023-02-27T06:55:42.090Z,10.40
2023-02-27T06:58:10.924Z,11.50
2023-02-27T07:00:39.000Z,10.63
2023-02-27T07:03:07.001Z,13.13
2023-02-27T07:05:35.202Z,9.37
2023-02-27T07:08:03.710Z,10.97
2023-02-27T07:10:33.143Z,9.73
2023-02-27T07:13:01.536Z,9.97
2023-02-27T07:15:29.789Z,11.27
2023-02-27T07:17:57.876Z,11.57
2023-02-27T07:20:26.068Z,9.20
2023-02-27T07:22:54.199Z,16.00
2023-02-27T07:25:22.379Z,10.43
2023-02-27T07:27:51.809Z,8.07
2023-02-27T07:30:21.751Z,9.57
2023-02-27T07:32:50.705Z,6.07
2023-02-27T07:35:19.509Z,8.43
2023-02-27T07:37:48.230Z,8.17
2023-02-27T07:40:16.629Z,8.10
2023-02-27T07:42:44.853Z,6.67
2023-02-27T07:45:14.433Z,8.90
2023-02-27T07:47:42.678Z,7.80
2023-02-27T07:50:14.046Z,8.17
2023-02-27T07:52:42.113Z,6.37
2023-02-27T07:55:11.609Z,11.23
2023-02-27T07:57:39.712Z,6.93
2023-02-27T08:00:09.760Z,8.13
2023-02-27T08:02:41.800Z,6.67
2023-02-27T08:05:10.323Z,8.43
2023-02-27T08:07:38.330Z,10.97
2023-02-27T08:10:07.682Z,7.00
2023-02-27T08:12:35.827Z,8.00
2023-02-27T08:15:04.283Z,8.83
2023-02-27T08:17:32.735Z,7.43
2023-02-27T08:20:02.327Z,7.97
2023-02-27T08:22:30.505Z,6.37
2023-02-27T08:24:58.667Z,8.77
2023-02-27T08:27:26.708Z,6.87
2023-02-27T08:29:54.721Z,10.43
2023-02-27T08:32:22.975Z,9.60
2023-02-27T08:34:51.657Z,5.70
2023-02-27T08:37:21.702Z,8.30
2023-02-27T08:39:49.870Z,4.20
2023-02-27T08:42:20.113Z,4.57
2023-02-27T08:44:50.451Z,5.63
2023-02-27T08:47:18.811Z,5.00
2023-02-27T08:49:46.855Z,5.17
2023-02-27T08:52:15.055Z,4.40
2023-02-27T08:54:48.964Z,4.43
2023-02-27T08:57:19.788Z,5.43
2023-02-27T08:59:47.919Z,4.47
2023-02-27T09:02:16.101Z,3.77
2023-02-27T09:04:44.158Z,3.87
2023-02-27T09:07:12.311Z,3.03
2023-02-27T09:09:40.547Z,5.73
2023-02-27T09:12:10.213Z,3.53
2023-02-27T09:14:39.571Z,2.90
2023-02-27T09:17:08.165Z,5.00
2023-02-27T09:19:36.658Z,7.77
2023-02-27T09:22:04.826Z,2.87
2023-02-27T09:24:32.974Z,2.87
2023-02-27T09:27:01.057Z,6.83
2023-02-27T09:29:30.720Z,4.60
2023-02-27T09:31:58.826Z,4.37
2023-02-27T09:34:27.261Z,3.10
2023-02-27T09:36:55.220Z,3.83
2023-02-27T09:39:23.604Z,4.60
2023-02-27T09:41:58.728Z,3.33
2023-02-27T09:44:46.645Z,3.73
2023-02-27T09:47:19.923Z,3.17
2023-02-27T09:49:56.115Z,5.23
2023-02-27T09:52:24.272Z,4.67
2023-02-27T09:54:54.305Z,3.80
2023-02-27T09:57:31.806Z,2.57
2023-02-27T10:00:07.222Z,2.63
2023-02-27T10:02:48.771Z,5.30
2023-02-27T10:05:24.916Z,2.53
2023-02-27T10:07:58.216Z,4.13
2023-02-27T10:10:33.321Z,2.73
2023-02-27T10:13:31.751Z,3.27
2023-02-27T10:16:05.317Z,3.03
2023-02-27T10:18:36.556Z,3.00
2023-02-27T10:21:08.992Z,3.10
2023-02-27T10:23:41.651Z,3.40
2023-02-27T10:26:15.392Z,2.33
2023-02-27T10:28:43.519Z,6.50
2023-02-27T10:31:18.170Z,2.47
2023-02-27T10:33:49.061Z,2.10
2023-02-27T10:36:32.492Z,4.87
2023-02-27T10:39:04.914Z,3.27
2023-02-27T10:41:33.265Z,5.43
2023-02-27T10:44:01.603Z,3.63
2023-02-27T10:46:32.651Z,2.47
2023-02-27T10:49:01.787Z,2.40
2023-02-27T10:51:31.924Z,3.90
2023-02-27T10:54:16.394Z,2.67
2023-02-27T10:56:46.224Z,2.90
2023-02-27T10:59:19.915Z,3.13
2023-02-27T11:01:51.818Z,3.63
2023-02-27T11:04:28.812Z,2.37
2023-02-27T11:07:03.292Z,3.37
2023-02-27T11:09:33.310Z,2.17
2023-02-27T11:12:21.352Z,2.07
2023-02-27T11:14:51.507Z,2.23
2023-02-27T11:17:28.574Z,3.53
2023-02-27T11:19:57.294Z,1.70
2023-02-27T11:22:26.888Z,4.27
2023-02-27T11:25:12.128Z,1.80
2023-02-27T11:27:42.042Z,2.13
2023-02-27T11:30:23.884Z,2.60
2023-02-27T11:32:53.583Z,3.50
2023-02-27T11:35:25.311Z,2.03
2023-02-27T11:37:55.263Z,5.70
2023-02-27T11:40:29.484Z,1.90
2023-02-27T11:42:59.318Z,1.80
2023-02-27T11:46:23.092Z,1.80
2023-02-27T11:48:27.314Z,1.87
2023-02-27T11:51:25.245Z,2.23
2023-02-27T11:54:19.631Z,1.93
2023-02-27T11:56:52.859Z,1.90
2023-02-27T11:59:32.037Z,3.77
2023-02-27T12:02:04.333Z,2.57
2023-02-27T12:04:44.670Z,2.03
2023-02-27T12:07:19.559Z,3.43
2023-02-27T12:09:52.026Z,1.53
2023-02-27T12:12:26.752Z,2.80
2023-02-27T12:15:00.965Z,2.07
2023-02-27T12:17:34.719Z,1.80
2023-02-27T12:20:19.819Z,2.07
2023-02-27T12:22:50.009Z,2.30
2023-02-27T12:25:25.748Z,1.53
2023-02-27T12:27:56.757Z,3.40
2023-02-27T12:30:28.127Z,1.57
2023-02-27T12:32:59.604Z,1.60
2023-02-27T12:35:33.033Z,1.40
2023-02-27T12:38:02.525Z,1.17
2023-02-27T12:40:32.934Z,1.73
2023-02-27T12:43:24.281Z,1.80
2023-02-27T12:46:02.734Z,1.10
2023-02-27T12:48:45.088Z,1.23
2023-02-27T12:51:27.374Z,2.13
2023-02-27T12:54:16.747Z,1.20
2023-02-27T12:56:51.420Z,1.27
2023-02-27T12:59:31.817Z,1.40
2023-02-27T13:02:05.271Z,1.20
2023-02-27T13:04:39.545Z,0.90
2023-02-27T13:07:11.002Z,1.10
2023-02-27T13:09:42.254Z,1.67
2023-02-27T13:12:14.856Z,1.87
2023-02-27T13:14:48.309Z,1.63
2023-02-27T13:17:29.703Z,1.33
2023-02-27T13:20:01.576Z,1.20
2023-02-27T13:22:34.778Z,1.27
2023-02-27T13:25:05.822Z,1.23
2023-02-27T13:27:37.215Z,1.30
2023-02-27T13:30:14.610Z,1.23
2023-02-27T13:32:47.816Z,3.10
2023-02-27T13:35:22.529Z,4.10
2023-02-27T13:37:55.209Z,1.63
2023-02-27T13:40:35.382Z,1.43
2023-02-27T13:43:07.458Z,2.00
2023-02-27T13:45:53.619Z,1.97
2023-02-27T13:48:48.157Z,1.37
2023-02-27T13:51:56.518Z,1.20
2023-02-27T13:54:34.209Z,2.77
2023-02-27T13:57:23.798Z,1.00
2023-02-27T13:59:57.449Z,1.27
2023-02-27T14:02:58.702Z,2.10
2023-02-27T14:05:32.055Z,1.30
2023-02-27T14:08:05.380Z,2.27
2023-02-27T14:10:36.419Z,3.30
2023-02-27T14:13:05.405Z,1.83
2023-02-27T14:16:00.480Z,1.30
2023-02-27T14:18:53.052Z,1.33
2023-02-27T14:21:56.286Z,1.23
2023-02-27T14:24:28.414Z,1.60
2023-02-27T14:26:58.325Z,2.97
2023-02-27T14:29:31.311Z,4.00
2023-02-27T14:32:00.987Z,5.13
2023-02-27T14:34:29.598Z,0.90
2023-02-27T14:37:01.628Z,3.23
2023-02-27T14:39:32.036Z,2.20
2023-02-27T14:42:35.749Z,1.47
2023-02-27T14:45:04.440Z,1.43
2023-02-27T14:47:34.510Z,1.47
2023-02-27T14:50:04.113Z,2.00
2023-02-27T14:52:34.055Z,1.30
2023-02-27T14:55:17.409Z,1.57
2023-02-27T14:57:59.789Z,1.13
2023-02-27T15:00:37.812Z,1.80
2023-02-27T15:03:18.744Z,2.60
2023-02-27T15:05:47.707Z,3.27
2023-02-27T15:08:23.900Z,1.37
2023-02-27T15:10:54.577Z,1.40
2023-02-27T15:13:27.101Z,1.30
2023-02-27T15:16:37.408Z,2.60
2023-02-27T15:19:14.232Z,1.10
2023-02-27T15:21:44.869Z,1.40
2023-02-27T15:24:25.811Z,2.67
2023-02-27T15:26:56.500Z,2.37
2023-02-27T15:29:27.787Z,0.90
2023-02-27T15:31:55.960Z,1.93
2023-02-27T15:34:24.032Z,1.27
2023-02-27T15:36:53.849Z,1.80
2023-02-27T15:39:25.714Z,1.23
2023-02-27T15:41:55.869Z,1.63
2023-02-27T15:44:31.697Z,1.00
2023-02-27T15:47:00.547Z,1.20
2023-02-27T15:49:29.003Z,4.37
2023-02-27T15:52:02.088Z,3.37
2023-02-27T15:54:34.614Z,2.00
2023-02-27T15:57:04.830Z,3.23
2023-02-27T15:59:37.258Z,2.53
2023-02-27T16:02:07.673Z,4.17
2023-02-27T16:04:35.838Z,1.47
2023-02-27T16:07:07.913Z,4.07
2023-02-27T16:09:36.765Z,2.30
2023-02-27T16:12:22.768Z,1.40
2023-02-27T16:14:54.033Z,1.40
2023-02-27T16:17:30.757Z,2.40
2023-02-27T16:20:01.931Z,1.57
2023-02-27T16:22:30.781Z,1.60
2023-02-27T16:25:10.103Z,2.20
2023-02-27T16:27:38.598Z,1.73
2023-02-27T16:30:12.862Z,1.80
2023-02-27T16:32:43.949Z,1.67
2023-02-27T16:35:18.387Z,1.93
2023-02-27T16:37:47.969Z,1.23
2023-02-27T16:40:18.959Z,2.23
2023-02-27T16:42:47.817Z,3.40
2023-02-27T16:45:19.069Z,1.23
2023-02-27T16:47:49.734Z,1.90
2023-02-27T16:50:21.570Z,1.67
2023-02-27T16:52:49.696Z,1.70
2023-02-27T16:55:17.747Z,1.60
2023-02-27T16:57:45.864Z,1.83
2023-02-27T17:00:15.212Z,1.67
2023-02-27T17:02:44.652Z,3.03
2023-02-27T17:05:15.163Z,2.90
2023-02-27T17:07:44.676Z,1.50
2023-02-27T17:10:15.781Z,2.33
2023-02-27T17:12:44.311Z,1.80
2023-02-27T17:15:12.398Z,1.57
2023-02-27T17:17:40.464Z,1.63
2023-02-27T17:20:11.957Z,2.33
2023-02-27T17:22:41.711Z,2.53
2023-02-27T17:25:11.494Z,2.40
2023-02-27T17:27:39.661Z,1.70
2023-02-27T17:30:09.571Z,3.03
2023-02-27T17:32:37.993Z,1.70
2023-02-27T17:35:06.827Z,1.97
2023-02-27T17:37:36.631Z,1.60
2023-02-27T17:40:05.448Z,1.87
2023-02-27T17:42:34.102Z,1.70
2023-02-27T17:45:05.519Z,3.27
2023-02-27T17:47:34.770Z,2.67
2023-02-27T17:50:04.357Z,3.40
2023-02-27T17:52:32.559Z,3.07
2023-02-27T17:55:03.606Z,3.93
2023-02-27T17:57:32.058Z,2.97
2023-02-27T18:00:00.249Z,2.63
2023-02-27T18:02:28.785Z,2.67
2023-02-27T18:04:58.153Z,2.80
2023-02-27T18:07:26.228Z,3.40
2023-02-27T18:09:54.466Z,2.00
2023-02-27T18:12:25.413Z,2.87
2023-02-27T18:14:53.554Z,2.53
2023-02-27T18:17:21.753Z,3.17
2023-02-27T18:19:51.291Z,2.37
2023-02-27T18:22:21.761Z,3.53
2023-02-27T18:24:50.053Z,2.90
2023-02-27T18:27:18.271Z,2.40
2023-02-27T18:29:47.799Z,2.53
2023-02-27T18:32:16.081Z,3.67
2023-02-27T18:34:44.453Z,2.73
2023-02-27T18:37:12.809Z,3.10
2023-02-27T18:39:42.293Z,2.97
2023-02-27T18:42:10.352Z,3.13
2023-02-27T18:44:40.985Z,5.23
2023-02-27T18:47:12.084Z,4.57
2023-02-27T18:49:40.250Z,3.20
2023-02-27T18:52:08.733Z,3.03
2023-02-27T18:54:37.196Z,5.93
2023-02-27T18:57:06.176Z,5.57
2023-02-27T18:59:34.448Z,8.03
2023-02-27T19:02:02.621Z,6.17
2023-02-27T19:04:34.624Z,6.10
2023-02-27T19:07:02.776Z,6.00
2023-02-27T19:09:32.862Z,7.60
2023-02-27T19:12:01.239Z,5.17
2023-02-27T19:14:29.641Z,4.50
2023-02-27T19:17:00.365Z,6.23
2023-02-27T19:19:29.013Z,5.37
2023-02-27T19:21:58.688Z,6.10
2023-02-27T19:24:27.139Z,5.23
2023-02-27T19:26:55.228Z,6.13
2023-02-27T19:29:23.347Z,4.70
2023-02-27T19:31:51.639Z,7.17
2023-02-27T19:34:20.002Z,5.60
2023-02-27T19:36:48.375Z,5.97
2023-02-27T19:39:18.062Z,6.73
2023-02-27T19:41:46.350Z,5.53
2023-02-27T19:44:14.523Z,5.47
2023-02-27T19:46:43.591Z,8.03
2023-02-27T19:49:11.848Z,5.03
2023-02-27T19:51:41.501Z,5.90
2023-02-27T19:54:13.640Z,5.87
2023-02-27T19:56:43.689Z,6.10
2023-02-27T19:59:12.744Z,4.00
2023-02-27T20:01:41.582Z,4.23
2023-02-27T20:04:11.127Z,5.07
2023-02-27T20:06:42.722Z,6.27
2023-02-27T20:09:11.646Z,6.43
2023-02-27T20:11:40.453Z,5.57
2023-02-27T20:14:10.098Z,6.43
2023-02-27T20:16:38.510Z,6.87
2023-02-27T20:19:07.992Z,4.90
2023-02-27T20:21:36.184Z,7.63
2023-02-27T20:24:05.230Z,6.17
2023-02-27T20:26:35.311Z,7.60
2023-02-27T20:29:10.070Z,8.00
2023-02-27T20:31:39.609Z,8.07
2023-02-27T20:34:11.282Z,7.93
2023-02-27T20:36:40.894Z,5.47
2023-02-27T20:39:10.187Z,10.47
2023-02-27T20:41:40.226Z,4.73
2023-02-27T20:44:11.428Z,6.83
2023-02-27T20:46:41.147Z,6.97
2023-02-27T20:49:10.247Z,7.90
2023-02-27T20:51:39.933Z,7.67
2023-02-27T20:54:10.610Z,6.03
2023-02-27T20:56:41.195Z,6.43
2023-02-27T20:59:14.436Z,5.73
2023-02-27T21:01:51.739Z,8.93
2023-02-27T21:04:22.223Z,5.97
2023-02-27T21:06:50.619Z,6.33
2023-02-27T21:09:19.725Z,6.73
2023-02-27T21:11:47.828Z,7.20
2023-02-27T21:14:17.331Z,6.27
2023-02-27T21:16:45.846Z,5.97
2023-02-27T21:19:14.936Z,5.90
2023-02-27T21:21:43.134Z,4.97
2023-02-27T21:24:14.361Z,5.97
2023-02-27T21:26:42.994Z,4.50
2023-02-27T21:29:12.942Z,4.50
2023-02-27T21:31:45.171Z,5.43
2023-02-27T21:34:15.345Z,4.90
2023-02-27T21:36:45.924Z,6.87
2023-02-27T21:39:16.056Z,4.20
2023-02-27T21:41:45.267Z,4.90
2023-02-27T21:44:14.557Z,8.53
2023-02-27T21:46:45.175Z,6.70
2023-02-27T21:49:17.128Z,7.10
2023-02-27T21:51:45.507Z,6.20
2023-02-27T21:54:15.330Z,5.33
2023-02-27T21:56:45.898Z,6.90
2023-02-27T21:59:14.872Z,6.30
2023-02-27T22:01:47.237Z,7.73
2023-02-27T22:04:16.185Z,8.13
2023-02-27T22:06:44.693Z,5.77
2023-02-27T22:09:12.838Z,6.70
2023-02-27T22:11:41.012Z,4.83
2023-02-27T22:14:09.979Z,5.37
2023-02-27T22:16:38.939Z,4.67
2023-02-27T22:19:09.537Z,6.93
2023-02-27T22:21:38.981Z,6.50
2023-02-27T22:24:08.242Z,5.30
2023-02-27T22:26:36.673Z,3.73
2023-02-27T22:29:05.732Z,4.43
2023-02-27T22:31:35.624Z,5.07
2023-02-27T22:34:05.804Z,7.17
2023-02-27T22:36:37.505Z,4.37
2023-02-27T22:39:05.970Z,5.43
2023-02-27T22:41:37.975Z,4.40
2023-02-27T22:44:07.056Z,4.73
2023-02-27T22:46:37.816Z,5.27
2023-02-27T22:49:08.565Z,4.80
2023-02-27T22:51:38.684Z,4.70
2023-02-27T22:54:07.864Z,4.23
2023-02-27T22:56:37.424Z,4.57
2023-02-27T22:59:05.666Z,4.93
2023-02-27T23:01:35.340Z,4.83
2023-02-27T23:04:05.096Z,4.47
2023-02-27T23:06:34.378Z,4.77
2023-02-27T23:09:04.487Z,5.13
2023-02-27T23:11:32.647Z,5.43
2023-02-27T23:14:00.808Z,6.00
2023-02-27T23:16:28.913Z,6.17
2023-02-27T23:18:58.533Z,2.93
2023-02-27T23:21:29.715Z,6.33
2023-02-27T23:23:58.436Z,4.60
2023-02-27T23:26:28.454Z,3.37
2023-02-27T23:28:56.953Z,4.20
2023-02-27T23:31:25.287Z,4.43
2023-02-27T23:33:53.952Z,3.90
2023-02-27T23:36:22.260Z,4.80
2023-02-27T23:38:50.560Z,3.53
2023-02-27T23:41:20.776Z,4.63
2023-02-27T23:43:53.177Z,4.60
2023-02-27T23:46:21.841Z,3.50
2023-02-27T23:48:50.000Z,6.13
2023-02-27T23:51:18.147Z,6.37
2023-02-27T23:53:46.117Z,4.30
2023-02-27T23:56:15.814Z,4.27
2023-02-27T23:58:43.941Z,5.43
